Time;durP1;ratioP1;P1;durP2;ratioP2;P2;SDS_P1;SDS_P2;PMS_P1;PMS_P2;Temp;Humidity;BMP_temperature;BMP_pressure;BME280_temperature;BME280_humidity;BME280_pressure;Samples;Min_cycle;Max_cycle;Signal;HPM_P1;HPM_P2
2023/01/14 00:00:09;;;;;;;;;;;;;;;7.13;100.00;100032.50;296565;32;5536;-78
2023/01/14 00:00:19;;;;;;;;;;;;;;;7.12;100.00;100031.66;294838;33;3840;-77
2023/01/14 00:00:29;;;;;;;;;;;;;;;7.12;100.00;100026.44;294385;33;4084;-78
2023/01/14 00:00:40;;;;;;;;;;;;;;;7.12;100.00;100025.56;292875;33;5630;-77
2023/01/14 00:00:50;;;;;;;;;;;;;;;7.09;100.00;100026.50;291815;33;3647;-78
2023/01/14 00:01:04;;;;;;;;;;;;;;;7.10;100.00;100023.00;287609;33;4166;-77
2023/01/14 00:01:15;;;;;;;;;;;;;;;7.09;100.00;100025.63;289493;34;892;-77
2023/01/14 00:01:27;;;;;;;;;;;;;;;7.09;100.00;100025.63;286636;34;4454;-77
2023/01/14 00:01:38;;;;;;;;;;;;;;;7.08;100.00;100024.78;281908;34;5813;-77
2023/01/14 00:01:49;;;;;;;;;;;;;;;7.07;100.00;100028.28;280962;34;6190;-78
2023/01/14 00:01:59;;;;;;;;;;;;;;;7.08;100.00;100026.53;287329;34;3667;-79
2023/01/14 00:02:09;;;;;;;;;;;;;;;7.07;100.00;100028.28;280120;34;7088;-77
2023/01/14 00:02:20;;;;;;;;;;;;;;;7.07;100.00;100022.22;277208;35;7082;-78
2023/01/14 00:02:32;;;;;;;;;;;;;;;7.08;100.00;100023.91;274917;35;5969;-78
2023/01/14 00:02:42;;;;;;;;;;;;;;;7.07;100.00;100028.28;277566;35;1245;-77
2023/01/14 00:02:52;;;;;;;;;;;;;;;7.08;100.00;100029.13;275860;35;6679;-79
2023/01/14 00:03:02;;;;;;;;;;;;;;;7.07;100.00;100022.22;274648;35;5173;-77
2023/01/14 00:03:13;;;;;;;;;;;;;;;7.08;100.00;100029.13;276598;35;934;-77
2023/01/14 00:03:26;;;;;;;;;;;;;;;7.08;100.00;100026.53;272346;36;5762;-77
2023/01/14 00:05:07;;;;;;;;;;;;;;;7.09;100.00;100023.91;2503274;27;19937;-77
2023/01/14 00:05:18;;;;;;;;;;;;;;;7.09;100.00;100029.09;353423;27;1305;-77
2023/01/14 00:05:28;;;;;;;;;;;;;;;7.10;100.00;100022.16;350260;28;1325;-78
2023/01/14 00:05:38;;;;;;;;;;;;;;;7.09;100.00;100025.63;349057;28;1035;-76
2023/01/14 00:05:55;;;;;;;;;;;;;;;7.09;100.00;100028.25;347706;28;852;-78
2023/01/14 00:06:06;;;;;;;;;;;;;;;7.10;100.00;100016.94;349007;28;836;-78
2023/01/14 00:06:17;;;;;;;;;;;;;;;7.10;100.00;100027.34;349036;28;867;-77
2023/01/14 00:06:28;;;;;;;;;;;;;;;7.10;100.00;100029.97;349002;28;738;-77
2023/01/14 00:06:38;;;;;;;;;;;;;;;7.11;100.00;100029.94;348930;28;1236;-77
2023/01/14 00:06:50;;;;;;;;;;;;;;;7.10;100.00;100030.81;347519;28;1168;-77
2023/01/14 00:07:01;;;;;;;;;;;;;;;7.09;100.00;100029.09;350358;28;813;-78
2023/01/14 00:07:11;;;;;;;;;;;;;;;7.10;100.00;100024.75;351698;28;1219;-78
2023/01/14 00:07:21;;;;;;;;;;;;;;;7.09;100.00;100026.50;351907;28;1232;-78
2023/01/14 00:07:31;;;;;;;;;;;;;;;7.10;100.00;100027.34;351830;28;780;-77
2023/01/14 00:07:42;;;;;;;;;;;;;;;7.10;100.00;100022.16;349873;28;1842;-78
2023/01/14 00:07:52;;;;;;;;;;;;;;;7.10;100.00;100027.34;350335;28;1750;-77
2023/01/14 00:08:02;;;;;;;;;;;;;;;7.10;100.00;100022.16;349067;28;824;-77
2023/01/14 00:08:12;;;;;;;;;;;;;;;7.10;100.00;100025.59;350318;28;1339;-77
2023/01/14 00:08:23;;;;;;;;;;;;;;;7.10;100.00;100028.22;348984;28;1375;-77
2023/01/14 00:08:34;;;;;;;;;;;;;;;7.11;100.00;100029.94;351101;28;1326;-77
2023/01/14 00:08:45;;;;;;;;;;;;;;;7.11;100.00;100029.06;348272;28;3812;-78
2023/01/14 00:08:59;;;;;;;;;;;;;;;7.11;100.00;100029.06;342526;28;6179;-77
2023/01/14 00:09:12;;;;;;;;;;;;;;;7.10;100.00;100027.34;345124;28;1733;-78
2023/01/14 00:09:26;;;;;;;;;;;;;;;7.10;100.00;100022.16;344736;28;1693;-76
2023/01/14 00:09:37;;;;;;;;;;;;;;;7.10;100.00;100028.22;348610;28;1306;-78
2023/01/14 00:09:47;;;;;;;;;;;;;;;7.12;100.00;100030.78;346458;28;5093;-79
2023/01/14 00:09:57;;;;;;;;;;;;;;;7.12;100.00;100033.38;343382;28;3287;-77
2023/01/14 00:10:08;;;;;;;;;;;;;;;7.11;100.00;100029.06;345049;28;1825;-77
2023/01/14 00:10:19;;;;;;;;;;;;;;;7.10;100.00;100023.00;344938;28;1924;-78
2023/01/14 00:10:30;;;;;;;;;;;;;;;7.10;100.00;100029.97;345448;28;2687;-78
2023/01/14 00:10:40;;;;;;;;;;;;;;;7.11;100.00;100031.66;349342;28;1519;-77
2023/01/14 00:10:50;;;;;;;;;;;;;;;7.10;100.00;100027.34;345371;28;3778;-78
2023/01/14 00:11:02;;;;;;;;;;;;;;;7.10;100.00;100027.34;343963;28;3449;-79
2023/01/14 00:11:12;;;;;;;;;;;;;;;7.11;100.00;100037.72;344986;28;1422;-78
2023/01/14 00:11:45;;;;;;;;;;;;;;;7.12;100.00;100030.78;343639;28;1668;-78
2023/01/14 00:11:53;;;;;;;;;;;;;;;7.13;100.00;100029.91;342534;28;3734;-78
2023/01/14 00:12:04;;;;;;;;;;;;;;;7.13;100.00;100029.91;344438;28;3625;-78
2023/01/14 00:12:15;;;;;;;;;;;;;;;7.13;100.00;100024.69;342417;28;1271;-78
2023/01/14 00:12:25;;;;;;;;;;;;;;;7.13;100.00;100028.16;346515;28;1352;-78
2023/01/14 00:12:36;;;;;;;;;;;;;;;7.13;100.00;100029.91;343773;28;1362;-78
2023/01/14 00:12:46;;;;;;;;;;;;;;;7.14;100.00;100034.22;344905;28;3517;-78
2023/01/14 00:12:56;;;;;;;;;;;;;;;7.13;100.00;100028.16;341535;28;6018;-78
2023/01/14 00:13:07;;;;;;;;;;;;;;;7.13;100.00;100033.34;339312;28;3734;-79
2023/01/14 00:13:18;;;;;;;;;;;;;;;7.14;100.00;100034.22;337945;29;2782;-79
2023/01/14 00:13:29;;;;;;;;;;;;;;;7.13;100.00;100028.16;339349;28;1350;-78
2023/01/14 00:13:39;;;;;;;;;;;;;;;7.14;100.00;100029.00;336307;29;1608;-77
2023/01/14 00:13:49;;;;;;;;;;;;;;;7.13;100.00;100033.34;337824;29;3427;-80
2023/01/14 00:14:00;;;;;;;;;;;;;;;7.14;100.00;100026.41;337292;29;3460;-78
2023/01/14 00:14:10;;;;;;;;;;;;;;;7.15;100.00;100030.72;338747;29;3284;-79
2023/01/14 00:14:22;;;;;;;;;;;;;;;7.14;100.00;100029.00;337178;29;1835;-80
2023/01/14 00:14:32;;;;;;;;;;;;;;;7.14;100.00;100023.81;338427;29;3529;-82
2023/01/14 00:14:42;;;;;;;;;;;;;;;7.15;100.00;100028.13;339590;29;930;-78
2023/01/14 00:14:52;;;;;;;;;;;;;;;7.15;100.00;100030.72;336777;29;5642;-78
2023/01/14 00:15:03;;;;;;;;;;;;;;;7.15;100.00;100030.72;339594;29;1534;-79
2023/01/14 00:15:13;;;;;;;;;;;;;;;7.14;100.00;100029.00;338127;29;3783;-78
2023/01/14 00:15:23;;;;;;;;;;;;;;;7.14;100.00;100026.41;335196;29;1894;-78
2023/01/14 00:15:34;;;;;;;;;;;;;;;7.14;100.00;100029.88;334748;29;3648;-78
2023/01/14 00:15:53;;;;;;;;;;;;;;;7.14;100.00;100029.00;334350;29;2017;-79
2023/01/14 00:16:04;;;;;;;;;;;;;;;7.14;100.00;100031.59;326989;29;3518;-78
2023/01/14 00:16:15;;;;;;;;;;;;;;;7.14;100.00;100029.88;330150;29;3132;-79
2023/01/14 00:16:25;;;;;;;;;;;;;;;7.13;100.00;100030.75;330959;29;1861;-78
2023/01/14 00:16:35;;;;;;;;;;;;;;;7.14;100.00;100023.81;330082;29;3498;-79
2023/01/14 00:16:46;;;;;;;;;;;;;;;7.14;100.00;100029.00;330552;29;1119;-79
2023/01/14 00:16:56;;;;;;;;;;;;;;;7.14;100.00;100031.59;328902;29;5601;-77
2023/01/14 00:17:07;;;;;;;;;;;;;;;7.13;100.00;100029.91;326329;30;3487;-78
2023/01/14 00:17:17;;;;;;;;;;;;;;;7.14;100.00;100029.88;326560;30;1983;-79
2023/01/14 00:17:27;;;;;;;;;;;;;;;7.14;100.00;100034.22;321546;30;2248;-79
2023/01/14 00:17:37;;;;;;;;;;;;;;;7.13;100.00;100035.09;320913;30;6347;-79
2023/01/14 00:17:48;;;;;;;;;;;;;;;7.12;100.00;100026.44;316735;31;2372;-79
2023/01/14 00:17:58;;;;;;;;;;;;;;;7.13;100.00;100033.34;315472;30;5651;-78
2023/01/14 00:18:08;;;;;;;;;;;;;;;7.13;100.00;100029.91;320307;30;3526;-78
2023/01/14 00:18:18;;;;;;;;;;;;;;;7.13;100.00;100033.34;319123;30;2523;-80
2023/01/14 00:18:29;;;;;;;;;;;;;;;7.14;100.00;100031.59;319178;30;3470;-79
2023/01/14 00:18:40;;;;;;;;;;;;;;;7.14;100.00;100029.00;317729;31;1435;-78
2023/01/14 00:18:50;;;;;;;;;;;;;;;7.14;100.00;100026.41;318266;30;3909;-77
2023/01/14 00:19:00;;;;;;;;;;;;;;;7.14;100.00;100031.59;318744;30;4693;-80
2023/01/14 00:19:10;;;;;;;;;;;;;;;7.14;100.00;100029.00;320784;30;3251;-77
2023/01/14 00:19:21;;;;;;;;;;;;;;;7.13;100.00;100032.50;318086;30;2271;-77
2023/01/14 00:19:31;;;;;;;;;;;;;;;7.14;100.00;100029.00;312449;31;3743;-78
2023/01/14 00:19:41;;;;;;;;;;;;;;;7.15;100.00;100030.72;312396;31;2759;-78
2023/01/14 00:19:52;;;;;;;;;;;;;;;7.14;100.00;100034.22;311493;31;3559;-77
2023/01/14 00:20:02;;;;;;;;;;;;;;;7.13;100.00;100022.94;307385;31;5743;-78
2023/01/14 00:20:12;;;;;;;;;;;;;;;7.13;100.00;100022.94;307284;32;3499;-77
2023/01/14 00:20:22;;;;;;;;;;;;;;;7.14;100.00;100034.22;307634;32;1988;-79
2023/01/14 00:20:33;;;;;;;;;;;;;;;7.14;100.00;100029.88;304851;32;3894;-79
2023/01/14 00:20:43;;;;;;;;;;;;;;;7.14;100.00;100023.81;304291;32;2218;-80
2023/01/14 00:20:56;;;;;;;;;;;;;;;7.14;100.00;100029.88;301102;32;5721;-78
2023/01/14 00:21:09;;;;;;;;;;;;;;;7.14;100.00;100039.41;299556;32;6129;-78
2023/01/14 00:21:20;;;;;;;;;;;;;;;7.13;100.00;100033.34;300091;32;2941;-78
2023/01/14 00:21:30;;;;;;;;;;;;;;;7.14;100.00;100029.00;298943;32;3384;-78
2023/01/14 00:21:41;;;;;;;;;;;;;;;7.15;100.00;100028.13;297142;33;1326;-78
2023/01/14 00:21:52;;;;;;;;;;;;;;;7.14;100.00;100035.06;292616;33;4144;-78
2023/01/14 00:22:02;;;;;;;;;;;;;;;7.14;100.00;100029.00;290299;33;6333;-78
2023/01/14 00:22:12;;;;;;;;;;;;;;;7.14;100.00;100029.88;288902;33;4358;-78
2023/01/14 00:22:23;;;;;;;;;;;;;;;7.13;100.00;100033.34;290484;34;2233;-78
2023/01/14 00:22:33;;;;;;;;;;;;;;;7.14;100.00;100031.59;290237;33;3825;-78
2023/01/14 00:22:44;;;;;;;;;;;;;;;7.14;100.00;100031.59;288925;33;4202;-78
2023/01/14 00:22:54;;;;;;;;;;;;;;;7.14;100.00;100036.81;286735;34;4422;-79
2023/01/14 00:23:04;;;;;;;;;;;;;;;7.15;100.00;100035.94;286573;34;3922;-77
2023/01/14 00:23:14;;;;;;;;;;;;;;;7.15;100.00;100028.97;285103;33;3665;-79
2023/01/14 00:23:25;;;;;;;;;;;;;;;7.15;100.00;100030.72;282907;35;3476;-78
2023/01/14 00:23:35;;;;;;;;;;;;;;;7.15;100.00;100030.72;282136;34;4573;-78
2023/01/14 00:23:46;;;;;;;;;;;;;;;7.15;100.00;100030.72;280713;34;5700;-77
2023/01/14 00:23:56;;;;;;;;;;;;;;;7.15;100.00;100035.94;279089;35;5941;-78
2023/01/14 00:24:06;;;;;;;;;;;;;;;7.15;100.00;100034.19;275854;35;3627;-76
2023/01/14 00:24:18;;;;;;;;;;;;;;;7.13;100.00;100030.75;274074;35;6148;-78
2023/01/14 00:24:29;;;;;;;;;;;;;;;7.14;100.00;100035.06;271745;35;7148;-78
2023/01/14 00:24:39;;;;;;;;;;;;;;;7.15;100.00;100025.53;272817;36;1380;-77
2023/01/14 00:24:50;;;;;;;;;;;;;;;7.15;100.00;100035.94;271194;35;5890;-77
2023/01/14 00:26:25;;;;;;;;;;;;;;;7.15;100.00;100031.59;2489794;27;19937;-78
2023/01/14 00:26:35;;;;;;;;;;;;;;;7.15;100.00;100033.31;351872;28;3595;-78
2023/01/14 00:26:47;;;;;;;;;;;;;;;7.16;100.00;100037.66;350978;28;1199;-78
2023/01/14 00:26:58;;;;;;;;;;;;;;;7.14;100.00;100029.00;346605;28;5860;-78
2023/01/14 00:27:08;;;;;;;;;;;;;;;7.14;100.00;100029.88;345683;28;3665;-78
2023/01/14 00:27:18;;;;;;;;;;;;;;;7.15;100.00;100034.19;348103;28;1329;-78
2023/01/14 00:27:29;;;;;;;;;;;;;;;7.16;100.00;100029.84;347834;28;1821;-78
2023/01/14 00:27:39;;;;;;;;;;;;;;;7.16;100.00;100029.84;347993;28;3812;-78
2023/01/14 00:27:50;;;;;;;;;;;;;;;7.15;100.00;100035.94;349496;28;1224;-76
2023/01/14 00:28:02;;;;;;;;;;;;;;;7.15;100.00;100036.78;347901;28;3456;-78
2023/01/14 00:28:12;;;;;;;;;;;;;;;7.16;100.00;100035.03;346193;28;3712;-79
2023/01/14 00:28:23;;;;;;;;;;;;;;;7.15;100.00;100028.13;349651;28;1665;-79
2023/01/14 00:28:33;;;;;;;;;;;;;;;7.16;100.00;100027.22;350551;28;3436;-79
2023/01/14 00:28:46;;;;;;;;;;;;;;;7.16;100.00;100033.28;350779;28;1214;-76
2023/01/14 00:28:57;;;;;;;;;;;;;;;7.13;100.00;100030.75;347217;28;5551;-77
2023/01/14 00:29:08;;;;;;;;;;;;;;;7.15;100.00;100030.72;345455;28;3549;-78
2023/01/14 00:29:20;;;;;;;;;;;;;;;7.15;100.00;100030.72;348080;28;926;-77
2023/01/14 00:29:31;;;;;;;;;;;;;;;7.14;100.00;100040.28;348511;28;3373;-77
2023/01/14 00:29:41;;;;;;;;;;;;;;;7.15;100.00;100030.72;347806;28;1459;-77
2023/01/14 00:29:51;;;;;;;;;;;;;;;7.15;100.00;100033.31;348475;28;3686;-77
2023/01/14 00:30:01;;;;;;;;;;;;;;;7.15;100.00;100033.31;345381;28;3287;-78
2023/01/14 00:30:12;;;;;;;;;;;;;;;7.15;100.00;100031.59;343673;28;3510;-78
2023/01/14 00:30:22;;;;;;;;;;;;;;;7.15;100.00;100033.31;346878;28;1656;-78
2023/01/14 00:30:32;;;;;;;;;;;;;;;7.15;100.00;100031.59;347060;28;3661;-78
2023/01/14 00:30:42;;;;;;;;;;;;;;;7.15;100.00;100030.72;347643;28;929;-78
2023/01/14 00:30:53;;;;;;;;;;;;;;;7.15;100.00;100034.19;346651;28;6015;-77
2023/01/14 00:31:10;;;;;;;;;;;;;;;7.16;100.00;100030.69;345943;28;3715;-78
2023/01/14 00:31:21;;;;;;;;;;;;;;;7.16;100.00;100035.03;345258;28;1653;-78
2023/01/14 00:31:31;;;;;;;;;;;;;;;7.16;100.00;100035.03;344420;28;3250;-78
2023/01/14 00:31:43;;;;;;;;;;;;;;;7.15;100.00;100026.38;346587;28;877;-78
2023/01/14 00:31:54;;;;;;;;;;;;;;;7.15;100.00;100031.59;346703;28;5418;-78
2023/01/14 00:32:04;;;;;;;;;;;;;;;7.15;100.00;100030.72;345473;28;1913;-78
2023/01/14 00:32:15;;;;;;;;;;;;;;;7.15;100.00;100030.72;345443;28;1949;-78
2023/01/14 00:32:25;;;;;;;;;;;;;;;7.15;100.00;100030.72;345192;28;3991;-78
2023/01/14 00:32:35;;;;;;;;;;;;;;;7.15;100.00;100035.94;348789;28;1211;-77
2023/01/14 00:32:45;;;;;;;;;;;;;;;7.15;100.00;100033.31;345661;28;3531;-77
2023/01/14 00:32:56;;;;;;;;;;;;;;;7.14;100.00;100032.47;344241;28;5805;-77
2023/01/14 00:33:06;;;;;;;;;;;;;;;7.16;100.00;100032.44;345040;28;1303;-77
2023/01/14 00:33:16;;;;;;;;;;;;;;;7.15;100.00;100033.31;342001;28;3855;-77
2023/01/14 00:33:26;;;;;;;;;;;;;;;7.15;100.00;100030.72;343750;28;754;-77
2023/01/14 00:33:37;;;;;;;;;;;;;;;7.14;100.00;100029.00;342588;28;4243;-77
2023/01/14 00:33:47;;;;;;;;;;;;;;;7.14;100.00;100029.88;347020;28;1222;-78
2023/01/14 00:33:58;;;;;;;;;;;;;;;7.14;100.00;100029.00;345031;28;5533;-79
2023/01/14 00:34:08;;;;;;;;;;;;;;;7.14;100.00;100032.47;347749;28;1205;-78
2023/01/14 00:34:18;;;;;;;;;;;;;;;7.14;100.00;100034.22;345224;28;3906;-78
2023/01/14 00:34:29;;;;;;;;;;;;;;;7.15;100.00;100030.72;343433;28;1283;-78
2023/01/14 00:34:39;;;;;;;;;;;;;;;7.13;100.00;100033.34;335988;29;3976;-77
2023/01/14 00:34:49;;;;;;;;;;;;;;;7.13;100.00;100033.34;343178;28;1359;-77
2023/01/14 00:35:00;;;;;;;;;;;;;;;7.12;100.00;100030.78;340214;28;4100;-77
2023/01/14 00:35:10;;;;;;;;;;;;;;;7.12;100.00;100036.00;339607;29;1989;-77
2023/01/14 00:35:20;;;;;;;;;;;;;;;7.12;100.00;100030.78;335369;29;3613;-77
2023/01/14 00:35:30;;;;;;;;;;;;;;;7.12;100.00;100033.38;338551;29;905;-77
2023/01/14 00:35:40;;;;;;;;;;;;;;;7.12;100.00;100036.00;338161;29;5785;-77
2023/01/14 00:35:54;;;;;;;;;;;;;;;7.12;100.00;100033.38;341035;29;896;-78
2023/01/14 00:36:05;;;;;;;;;;;;;;;7.11;100.00;100032.53;338078;29;4603;-77
2023/01/14 00:36:16;;;;;;;;;;;;;;;7.10;100.00;100024.75;339785;29;4079;-77
2023/01/14 00:36:26;;;;;;;;;;;;;;;7.10;100.00;100032.56;337807;29;5872;-78
2023/01/14 00:36:36;;;;;;;;;;;;;;;7.12;100.00;100028.19;335981;29;3794;-78
2023/01/14 00:36:47;;;;;;;;;;;;;;;7.13;100.00;100032.50;332435;29;4702;-78
2023/01/14 00:36:57;;;;;;;;;;;;;;;7.13;100.00;100035.09;332313;29;3666;-78
2023/01/14 00:37:07;;;;;;;;;;;;;;;7.13;100.00;100029.91;333556;29;3788;-78
2023/01/14 00:37:17;;;;;;;;;;;;;;;7.12;100.00;100030.78;334049;29;4071;-78
2023/01/14 00:37:28;;;;;;;;;;;;;;;7.13;100.00;100038.56;332612;29;3517;-78
2023/01/14 00:37:38;;;;;;;;;;;;;;;7.14;100.00;100034.22;331266;29;3470;-78
2023/01/14 00:37:48;;;;;;;;;;;;;;;7.14;100.00;100034.22;329078;29;3611;-78
2023/01/14 00:37:58;;;;;;;;;;;;;;;7.14;100.00;100036.81;332861;29;3983;-78
2023/01/14 00:38:09;;;;;;;;;;;;;;;7.13;100.00;100037.69;329766;29;5770;-78
2023/01/14 00:38:19;;;;;;;;;;;;;;;7.14;100.00;100029.00;334678;29;3683;-78
2023/01/14 00:38:29;;;;;;;;;;;;;;;7.13;100.00;100029.91;329581;29;5796;-78
2023/01/14 00:38:39;;;;;;;;;;;;;;;7.13;100.00;100022.09;330402;29;3718;-78
2023/01/14 00:38:50;;;;;;;;;;;;;;;7.12;100.00;100030.78;333913;29;4475;-78
2023/01/14 00:39:00;;;;;;;;;;;;;;;7.12;100.00;100036.00;332992;29;3715;-78
2023/01/14 00:39:12;;;;;;;;;;;;;;;7.12;100.00;100033.38;328600;29;5945;-77
2023/01/14 00:39:22;;;;;;;;;;;;;;;7.12;100.00;100033.38;324770;30;1465;-78
2023/01/14 00:39:33;;;;;;;;;;;;;;;7.12;100.00;100031.66;323721;30;2422;-78
2023/01/14 00:39:43;;;;;;;;;;;;;;;7.12;100.00;100036.00;320811;30;1754;-78
2023/01/14 00:39:53;;;;;;;;;;;;;;;7.12;100.00;100036.00;321157;30;857;-78
2023/01/14 00:40:04;;;;;;;;;;;;;;;7.10;100.00;100032.56;323707;30;1568;-78
2023/01/14 00:40:14;;;;;;;;;;;;;;;7.10;100.00;100029.97;322244;30;1545;-78
2023/01/14 00:40:24;;;;;;;;;;;;;;;7.10;100.00;100029.97;325771;30;947;-78
2023/01/14 00:40:34;;;;;;;;;;;;;;;7.10;100.00;100035.16;326989;29;2238;-78
2023/01/14 00:40:44;;;;;;;;;;;;;;;7.11;100.00;100036.88;326184;30;2649;-78
2023/01/14 00:41:02;;;;;;;;;;;;;;;7.09;100.00;100031.69;325383;30;1188;-77
2023/01/14 00:41:13;;;;;;;;;;;;;;;7.09;100.00;100036.91;319154;30;3404;-76
2023/01/14 00:41:24;;;;;;;;;;;;;;;7.09;100.00;100030.84;321062;30;828;-77
2023/01/14 00:41:34;;;;;;;;;;;;;;;7.08;100.00;100031.72;321316;30;2656;-78
2023/01/14 00:41:44;;;;;;;;;;;;;;;7.08;100.00;100034.34;320492;30;2547;-77
2023/01/14 00:41:55;;;;;;;;;;;;;;;7.08;100.00;100034.34;317440;31;1372;-77
2023/01/14 00:42:05;;;;;;;;;;;;;;;7.07;100.00;100032.63;315572;31;1959;-77
2023/01/14 00:42:15;;;;;;;;;;;;;;;7.07;100.00;100030.00;314457;31;1786;-77
2023/01/14 00:42:25;;;;;;;;;;;;;;;7.07;100.00;100033.47;316435;31;1154;-77
2023/01/14 00:42:35;;;;;;;;;;;;;;;7.07;100.00;100035.22;318663;30;2675;-77
2023/01/14 00:42:46;;;;;;;;;;;;;;;7.07;100.00;100032.63;319420;30;3296;-77
2023/01/14 00:42:56;;;;;;;;;;;;;;;7.07;100.00;100037.81;317411;31;826;-77
2023/01/14 00:43:06;;;;;;;;;;;;;;;7.07;100.00;100037.81;315509;31;4395;-78
2023/01/14 00:43:17;;;;;;;;;;;;;;;7.07;100.00;100032.63;313618;30;4402;-77
2023/01/14 00:43:27;;;;;;;;;;;;;;;7.08;100.00;100036.94;314335;31;864;-77
2023/01/14 00:43:38;;;;;;;;;;;;;;;7.07;100.00;100028.28;313008;31;826;-77
2023/01/14 00:43:49;;;;;;;;;;;;;;;7.07;100.00;100038.69;309558;31;4931;-77
2023/01/14 00:44:00;;;;;;;;;;;;;;;7.07;100.00;100035.22;307927;31;3708;-77
2023/01/14 00:44:10;;;;;;;;;;;;;;;7.07;100.00;100033.47;309194;31;1228;-78
2023/01/14 00:44:20;;;;;;;;;;;;;;;7.07;100.00;100027.41;309825;31;3158;-77
2023/01/14 00:44:30;;;;;;;;;;;;;;;7.08;100.00;100034.34;310289;31;2996;-77
2023/01/14 00:44:40;;;;;;;;;;;;;;;7.08;100.00;100036.94;310782;31;906;-77
2023/01/14 00:44:51;;;;;;;;;;;;;;;7.07;100.00;100032.63;302595;32;3714;-77
2023/01/14 00:45:01;;;;;;;;;;;;;;;7.09;100.00;100030.84;300816;32;4354;-77
2023/01/14 00:45:11;;;;;;;;;;;;;;;7.08;100.00;100037.78;302065;32;1260;-77
2023/01/14 00:45:21;;;;;;;;;;;;;;;7.08;100.00;100034.34;300259;32;5968;-77
2023/01/14 00:45:32;;;;;;;;;;;;;;;7.08;100.00;100034.34;299928;32;6112;-77
2023/01/14 00:45:42;;;;;;;;;;;;;;;7.08;100.00;100034.34;299715;32;1780;-77
2023/01/14 00:45:53;;;;;;;;;;;;;;;7.08;100.00;100032.59;298244;33;842;-77
2023/01/14 00:46:05;;;;;;;;;;;;;;;7.08;100.00;100036.94;293103;33;6421;-77
2023/01/14 00:46:16;;;;;;;;;;;;;;;7.08;100.00;100037.78;291471;33;5047;-77
2023/01/14 00:46:28;;;;;;;;;;;;;;;7.08;100.00;100040.41;290362;34;1748;-77
2023/01/14 00:46:38;;;;;;;;;;;;;;;7.09;100.00;100036.06;288185;34;4291;-77
2023/01/14 00:46:50;;;;;;;;;;;;;;;7.07;100.00;100036.06;288115;34;5146;-77
2023/01/14 00:47:00;;;;;;;;;;;;;;;7.08;100.00;100039.53;287985;33;6184;-77
2023/01/14 00:47:10;;;;;;;;;;;;;;;7.08;100.00;100036.94;291383;34;1317;-76
2023/01/14 00:47:21;;;;;;;;;;;;;;;7.08;100.00;100037.78;288470;34;6152;-77
2023/01/14 00:47:32;;;;;;;;;;;;;;;7.08;100.00;100036.94;287250;34;7750;-76
2023/01/14 00:49:20;;;;;;;;;;;;;;;7.10;100.00;100042.97;2501299;27;19929;-78
2023/01/14 00:49:30;;;;;;;;;;;;;;;7.09;100.00;100036.06;353614;28;3862;-77
2023/01/14 00:49:41;;;;;;;;;;;;;;;7.09;100.00;100036.91;350791;28;5649;-77
2023/01/14 00:49:51;;;;;;;;;;;;;;;7.09;100.00;100038.66;351844;28;3458;-77
2023/01/14 00:50:03;;;;;;;;;;;;;;;7.09;100.00;100041.25;349167;28;1176;-78
2023/01/14 00:50:14;;;;;;;;;;;;;;;7.09;100.00;100036.06;347020;28;3489;-76
2023/01/14 00:50:24;;;;;;;;;;;;;;;7.08;100.00;100029.97;349195;28;1320;-78
2023/01/14 00:50:34;;;;;;;;;;;;;;;7.09;100.00;100036.06;347142;28;5817;-76
2023/01/14 00:50:44;;;;;;;;;;;;;;;7.09;100.00;100039.50;350089;28;1637;-78
2023/01/14 00:50:55;;;;;;;;;;;;;;;7.08;100.00;100036.94;351864;28;3749;-77
2023/01/14 00:51:05;;;;;;;;;;;;;;;7.07;100.00;100038.69;350621;28;1618;-78
2023/01/14 00:51:15;;;;;;;;;;;;;;;7.08;100.00;100034.34;351501;28;3386;-77
2023/01/14 00:51:26;;;;;;;;;;;;;;;7.07;100.00;100038.69;349580;28;1176;-77
2023/01/14 00:51:36;;;;;;;;;;;;;;;7.07;100.00;100037.81;349278;28;4063;-77
2023/01/14 00:51:46;;;;;;;;;;;;;;;7.07;100.00;100038.69;350761;28;3457;-78
2023/01/14 00:52:00;;;;;;;;;;;;;;;7.07;100.00;100035.22;349929;28;1624;-79
2023/01/14 00:52:11;;;;;;;;;;;;;;;7.07;100.00;100037.81;349726;28;2842;-77
2023/01/14 00:52:21;;;;;;;;;;;;;;;7.07;100.00;100030.88;350554;28;1349;-77
2023/01/14 00:52:31;;;;;;;;;;;;;;;7.06;100.00;100041.31;346622;28;3416;-77
2023/01/14 00:52:41;;;;;;;;;;;;;;;7.05;100.00;100030.03;346010;28;5791;-77
2023/01/14 00:52:51;;;;;;;;;;;;;;;7.06;100.00;100036.97;347413;28;3167;-77
2023/01/14 00:53:02;;;;;;;;;;;;;;;7.05;100.00;100035.25;346358;28;1767;-76
2023/01/14 00:53:12;;;;;;;;;;;;;;;7.06;100.00;100033.50;345597;28;3683;-76
2023/01/14 00:53:22;;;;;;;;;;;;;;;7.06;100.00;100033.50;345320;28;1204;-76
2023/01/14 00:53:32;;;;;;;;;;;;;;;7.06;100.00;100033.50;343166;28;5381;-76
2023/01/14 00:53:45;;;;;;;;;;;;;;;7.07;100.00;100040.44;346408;28;3769;-76
2023/01/14 00:53:55;;;;;;;;;;;;;;;7.06;100.00;100036.09;345342;28;1493;-77
2023/01/14 00:54:06;;;;;;;;;;;;;;;7.07;100.00;100032.63;347721;28;3295;-77
2023/01/14 00:54:16;;;;;;;;;;;;;;;7.06;100.00;100036.97;347519;28;1303;-76
2023/01/14 00:54:26;;;;;;;;;;;;;;;7.06;100.00;100030.91;346969;28;3715;-77
2023/01/14 00:54:36;;;;;;;;;;;;;;;7.07;100.00;100030.00;344239;28;5700;-76
2023/01/14 00:54:46;;;;;;;;;;;;;;;7.05;100.00;100024.84;346815;28;3133;-77
2023/01/14 00:54:57;;;;;;;;;;;;;;;7.05;100.00;100029.19;349962;28;1605;-77
2023/01/14 00:55:07;;;;;;;;;;;;;;;7.06;100.00;100036.09;345913;28;3199;-77
2023/01/14 00:55:17;;;;;;;;;;;;;;;7.05;100.00;100037.00;349067;28;1307;-77
2023/01/14 00:55:28;;;;;;;;;;;;;;;7.04;100.00;100030.06;348641;28;3250;-77
2023/01/14 00:55:38;;;;;;;;;;;;;;;7.04;100.00;100030.06;345473;28;5704;-77
2023/01/14 00:55:48;;;;;;;;;;;;;;;7.05;100.00;100031.78;344343;28;5748;-77
2023/01/14 00:55:59;;;;;;;;;;;;;;;7.06;100.00;100030.91;343529;28;1441;-77
2023/01/14 00:56:09;;;;;;;;;;;;;;;7.06;100.00;100030.91;342750;28;3135;-77
2023/01/14 00:56:20;;;;;;;;;;;;;;;7.05;100.00;100030.03;341240;28;1335;-77
2023/01/14 00:56:30;;;;;;;;;;;;;;;7.05;100.00;100029.19;340823;28;4000;-77
2023/01/14 00:56:40;;;;;;;;;;;;;;;7.05;100.00;100030.03;340419;28;5523;-78
2023/01/14 00:56:51;;;;;;;;;;;;;;;7.06;100.00;100025.69;343708;28;1687;-77
2023/01/14 00:57:01;;;;;;;;;;;;;;;7.06;100.00;100030.91;342320;28;1870;-77
2023/01/14 00:57:12;;;;;;;;;;;;;;;7.07;100.00;100027.41;341607;28;3477;-77
2023/01/14 00:57:22;;;;;;;;;;;;;;;7.06;100.00;100023.09;341534;28;927;-77
2023/01/14 00:57:32;;;;;;;;;;;;;;;7.05;100.00;100030.03;344278;28;5880;-77
2023/01/14 00:57:43;;;;;;;;;;;;;;;7.06;100.00;100023.94;345189;28;3542;-77
2023/01/14 00:57:53;;;;;;;;;;;;;;;7.06;100.00;100030.91;345169;28;908;-77
2023/01/14 00:58:03;;;;;;;;;;;;;;;7.05;100.00;100030.03;349180;28;1817;-76
2023/01/14 00:58:13;;;;;;;;;;;;;;;7.07;100.00;100030.00;346528;28;3762;-77
2023/01/14 00:58:24;;;;;;;;;;;;;;;7.06;100.00;100025.69;343705;28;1273;-77
2023/01/14 00:58:34;;;;;;;;;;;;;;;7.05;100.00;100026.59;341430;28;4011;-76
2023/01/14 00:58:44;;;;;;;;;;;;;;;7.05;100.00;100030.03;342078;28;3444;-76
2023/01/14 00:58:55;;;;;;;;;;;;;;;7.06;100.00;100028.31;346195;28;3985;-76
2023/01/14 00:59:05;;;;;;;;;;;;;;;7.06;100.00;100031.75;343684;28;1858;-77
2023/01/14 00:59:19;;;;;;;;;;;;;;;7.05;100.00;100026.59;341597;28;3693;-77
2023/01/14 00:59:29;;;;;;;;;;;;;;;7.04;100.00;100032.69;342969;28;4002;-77
2023/01/14 00:59:40;;;;;;;;;;;;;;;7.03;100.00;100033.56;340850;28;5709;-77
2023/01/14 00:59:50;;;;;;;;;;;;;;;7.03;100.00;100025.75;342214;28;3692;-77
2023/01/14 01:00:00;;;;;;;;;;;;;;;7.02;100.00;100027.50;342377;28;1930;-79
2023/01/14 01:00:11;;;;;;;;;;;;;;;7.03;100.00;100025.75;342837;28;3383;-79
2023/01/14 01:00:21;;;;;;;;;;;;;;;7.03;100.00;100030.97;345373;28;1242;-76
2023/01/14 01:00:31;;;;;;;;;;;;;;;7.03;100.00;100030.97;339281;28;5263;-76
2023/01/14 01:00:42;;;;;;;;;;;;;;;7.03;100.00;100023.16;337870;29;3397;-76
2023/01/14 01:00:53;;;;;;;;;;;;;;;7.04;100.00;100027.47;337331;29;6289;-78
2023/01/14 01:01:03;;;;;;;;;;;;;;;7.04;100.00;100027.47;339460;29;1846;-77
2023/01/14 01:01:14;;;;;;;;;;;;;;;7.04;100.00;100027.47;341573;28;3860;-76